Time;durP1;ratioP1;P1;durP2;ratioP2;P2;SDS_P1;SDS_P2;PMS_P1;PMS_P2;Temp;Humidity;BMP_temperature;BMP_pressure;BME280_temperature;BME280_humidity;BME280_pressure;Samples;Min_cycle;Max_cycle;Signal;HPM_P1;HPM_P2
2022/06/25 00:00:21;;;;;;;3.43;1.60;;;;;;;18.24;100.00;100750.19;5308009;28;20032;-69
2022/06/25 00:02:52;;;;;;;2.83;1.85;;;;;;;18.22;100.00;100746.06;5289654;28;20051;-68
2022/06/25 00:05:29;;;;;;;2.70;1.70;;;;;;;18.21;100.00;100752.38;5309403;28;20039;-68
2022/06/25 00:08:00;;;;;;;4.00;1.50;;;;;;;18.18;100.00;100750.09;5310553;28;20120;-69
2022/06/25 00:10:31;;;;;;;3.85;1.60;;;;;;;18.17;100.00;100751.91;5307511;28;21193;-69
2022/06/25 00:13:03;;;;;;;3.42;1.60;;;;;;;18.17;100.00;100751.91;5309911;28;20038;-68
2022/06/25 00:15:34;;;;;;;4.63;1.83;;;;;;;18.16;100.00;100768.03;5305731;28;20035;-68
2022/06/25 00:18:06;;;;;;;4.87;1.90;;;;;;;18.14;100.00;100762.06;5314978;28;20054;-69
2022/06/25 00:20:37;;;;;;;2.27;1.60;;;;;;;18.11;100.00;100763.28;5306089;28;20470;-69
2022/06/25 00:23:09;;;;;;;3.27;1.90;;;;;;;18.10;100.00;100758.13;5291665;28;20028;-69
2022/06/25 00:25:40;;;;;;;4.00;1.50;;;;;;;18.06;100.00;100756.84;5307605;28;20035;-69
2022/06/25 00:28:11;;;;;;;3.25;1.90;;;;;;;18.03;100.00;100762.50;5314393;28;20040;-69
2022/06/25 00:30:43;;;;;;;5.35;1.75;;;;;;;18.01;100.00;100762.69;5309242;28;20634;-69
2022/06/25 00:33:14;;;;;;;2.58;2.08;;;;;;;17.99;100.00;100762.91;5304030;28;20028;-68
2022/06/25 00:35:46;;;;;;;3.53;1.92;;;;;;;17.99;100.00;100756.75;5307022;28;20059;-69
2022/06/25 00:38:17;;;;;;;2.67;1.80;;;;;;;17.97;100.00;100753.47;5307841;28;20036;-69
2022/06/25 00:40:48;;;;;;;3.47;2.10;;;;;;;17.86;100.00;100744.13;5307827;28;20063;-69
2022/06/25 00:43:20;;;;;;;3.90;2.30;;;;;;;17.94;100.00;100759.94;5308739;28;20032;-69
2022/06/25 00:45:51;;;;;;;4.35;2.05;;;;;;;17.90;100.00;100757.84;5305874;28;20084;-68
2022/06/25 00:48:22;;;;;;;4.17;2.17;;;;;;;17.82;100.00;100758.72;5304225;28;20072;-68
2022/06/25 00:50:57;;;;;;;5.25;1.90;;;;;;;17.89;100.00;100772.09;5311086;28;20031;-68
2022/06/25 00:53:32;;;;;;;5.60;2.13;;;;;;;17.84;100.00;100769.16;5307048;28;20385;-68
2022/06/25 00:56:05;;;;;;;5.40;2.67;;;;;;;17.75;100.00;100765.75;5288308;28;20043;-68
2022/06/25 00:58:44;;;;;;;3.15;2.17;;;;;;;17.87;100.00;100771.44;5312243;28;20029;-69
2022/06/25 01:01:16;;;;;;;4.30;2.17;;;;;;;17.74;100.00;100764.09;5309769;28;20036;-68
2022/06/25 01:03:47;;;;;;;4.30;2.30;;;;;;;17.75;100.00;100776.34;5293920;28;20028;-68
2022/06/25 01:06:19;;;;;;;4.72;2.65;;;;;;;17.74;100.00;100775.50;5305418;28;20471;-68
2022/06/25 01:08:50;;;;;;;4.00;2.35;;;;;;;17.71;100.00;100780.34;5310923;28;20032;-69
2022/06/25 01:11:22;;;;;;;3.63;2.10;;;;;;;17.70;100.00;100774.22;5307392;28;20020;-68
2022/06/25 01:13:53;;;;;;;3.88;2.70;;;;;;;17.70;100.00;100778.69;5309593;28;20032;-69
2022/06/25 01:16:25;;;;;;;5.15;2.58;;;;;;;17.66;100.00;100778.22;5308947;28;20056;-68
2022/06/25 01:18:56;;;;;;;4.30;2.35;;;;;;;17.65;100.00;100776.59;5307074;28;20055;-69
2022/06/25 01:21:27;;;;;;;3.38;2.53;;;;;;;17.64;100.00;100785.50;5310223;28;20397;-68
2022/06/25 01:24:00;;;;;;;7.78;2.53;;;;;;;17.65;100.00;100789.84;5290331;28;20388;-68
2022/06/25 01:26:36;;;;;;;2.85;2.55;;;;;;;17.63;100.00;100786.53;5312677;28;20030;-68
2022/06/25 01:29:09;;;;;;;3.33;2.30;;;;;;;17.57;100.00;100792.50;5306939;28;20294;-68
2022/06/25 01:31:40;;;;;;;5.38;3.10;;;;;;;17.55;100.00;100788.41;5312108;28;20023;-68
2022/06/25 01:34:11;;;;;;;3.67;2.80;;;;;;;17.56;100.00;100793.53;5309007;28;20493;-69
2022/06/25 01:36:43;;;;;;;5.33;2.47;;;;;;;17.58;100.00;100804.78;5305191;28;20027;-68
2022/06/25 01:39:14;;;;;;;5.00;2.58;;;;;;;17.52;100.00;100801.00;5287565;28;20158;-69
2022/06/25 01:41:45;;;;;;;4.93;2.95;;;;;;;17.50;100.00;100804.81;5311467;28;20248;-69
2022/06/25 01:44:16;;;;;;;3.70;2.40;;;;;;;17.49;100.00;100809.28;5308552;28;20504;-68
2022/06/25 01:46:48;;;;;;;4.93;2.30;;;;;;;17.49;100.00;100814.59;5309070;28;20434;-68
2022/06/25 01:49:19;;;;;;;6.32;3.08;;;;;;;17.49;100.00;100811.13;5304678;28;20031;-68
2022/06/25 01:51:50;;;;;;;5.75;2.50;;;;;;;17.44;100.00;100810.84;5310101;28;20027;-68
2022/06/25 01:54:22;;;;;;;5.67;3.20;;;;;;;17.44;100.00;100816.94;5306220;28;20051;-68
2022/06/25 01:56:53;;;;;;;5.30;2.58;;;;;;;17.45;100.00;100823.06;5304555;28;20024;-68
2022/06/25 01:59:24;;;;;;;4.55;2.70;;;;;;;17.40;100.00;100826.25;5305933;28;20074;-68
2022/06/25 02:01:55;;;;;;;3.63;2.40;;;;;;;17.35;100.00;100825.97;5303334;27;20028;-69
2022/06/25 02:04:27;;;;;;;4.32;3.00;;;;;;;17.36;100.00;100826.78;5309930;28;20034;-69
2022/06/25 02:06:58;;;;;;;5.07;2.80;;;;;;;17.31;100.00;100827.28;5305038;28;20077;-68
2022/06/25 02:09:29;;;;;;;5.97;2.60;;;;;;;17.29;100.00;100831.94;5310525;28;20114;-68
2022/06/25 02:12:01;;;;;;;5.73;2.60;;;;;;;17.26;100.00;100833.09;5307748;28;20020;-68
2022/06/25 02:14:32;;;;;;;3.80;2.55;;;;;;;17.25;100.00;100839.41;5304658;28;20032;-68
2022/06/25 02:17:03;;;;;;;5.35;3.38;;;;;;;17.21;100.00;100835.47;5290609;28;20063;-68
2022/06/25 02:19:35;;;;;;;3.78;2.60;;;;;;;17.18;100.00;100843.75;5309039;28;20027;-68
2022/06/25 02:22:06;;;;;;;6.13;2.88;;;;;;;17.18;100.00;100848.22;5308741;28;20031;-69
2022/06/25 02:24:37;;;;;;;5.47;2.78;;;;;;;17.18;100.00;100854.34;5290294;28;20015;-68
2022/06/25 02:27:09;;;;;;;4.53;2.88;;;;;;;17.13;100.00;100851.38;5309200;28;20546;-69
2022/06/25 02:29:40;;;;;;;5.87;2.30;;;;;;;17.15;100.00;100859.16;5306638;28;20133;-69
2022/06/25 02:32:12;;;;;;;5.80;3.10;;;;;;;17.12;100.00;100854.19;5299127;28;20586;-69
2022/06/25 02:34:43;;;;;;;8.35;2.90;;;;;;;17.12;100.00;100856.84;5288740;28;20488;-68
2022/06/25 02:37:14;;;;;;;5.88;2.70;;;;;;;17.10;100.00;100867.59;5310057;28;20415;-68
2022/06/25 02:39:45;;;;;;;4.45;2.63;;;;;;;17.05;100.00;100866.47;5303042;28;20386;-69
2022/06/25 02:42:17;;;;;;;5.57;2.55;;;;;;;17.06;100.00;100870.78;5310198;28;20024;-68
2022/06/25 02:44:48;;;;;;;4.85;2.75;;;;;;;17.03;100.00;100870.09;5305796;28;20028;-68
2022/06/25 02:47:19;;;;;;;4.60;2.60;;;;;;;17.04;100.00;100870.94;5305284;28;20031;-68
2022/06/25 02:49:50;;;;;;;5.13;2.75;;;;;;;17.03;100.00;100877.22;5308291;28;20027;-68
2022/06/25 02:52:22;;;;;;;5.35;2.80;;;;;;;17.02;100.00;100886.19;5310702;28;20076;-68
2022/06/25 02:54:53;;;;;;;6.25;3.63;;;;;;;16.99;100.00;100883.88;5287191;28;20038;-68
2022/06/25 03:00:15;;;;;;;5.88;3.22;;;;;;;16.95;100.00;100887.84;5309206;28;20036;-69
2022/06/25 03:02:46;;;;;;;8.98;2.75;;;;;;;16.98;100.00;100892.81;5308751;28;20016;-69
2022/06/25 03:05:17;;;;;;;4.80;3.03;;;;;;;16.95;100.00;100887.84;5303583;28;20492;-68
2022/06/25 03:07:49;;;;;;;5.38;3.30;;;;;;;16.96;100.00;100885.03;5305291;28;20031;-68
2022/06/25 03:10:20;;;;;;;5.47;3.42;;;;;;;16.97;100.00;100889.34;5305922;28;20028;-69
2022/06/25 03:12:51;;;;;;;5.55;3.60;;;;;;;16.95;100.00;100882.56;5311462;28;20024;-69
2022/06/25 03:15:23;;;;;;;9.38;4.20;;;;;;;16.94;100.00;100884.38;5306823;28;20539;-68
2022/06/25 03:17:54;;;;;;;4.93;3.78;;;;;;;16.97;100.00;100889.34;5312528;28;20435;-68
2022/06/25 03:20:25;;;;;;;5.45;3.70;;;;;;;16.94;100.00;100883.56;5308866;28;20024;-69
2022/06/25 03:22:57;;;;;;;6.45;3.65;;;;;;;16.94;100.00;100886.22;5308468;28;20378;-68
2022/06/25 03:25:28;;;;;;;7.38;3.60;;;;;;;16.91;100.00;100890.00;5308642;28;20374;-68
2022/06/25 03:28:00;;;;;;;6.60;4.00;;;;;;;16.91;100.00;100882.06;5313073;28;20028;-68
2022/06/25 03:30:31;;;;;;;6.40;3.78;;;;;;;16.92;100.00;100881.06;5310837;28;20031;-68
2022/06/25 03:33:02;;;;;;;4.32;3.28;;;;;;;16.95;100.00;100890.50;5313553;28;20032;-68
2022/06/25 03:35:34;;;;;;;4.82;3.35;;;;;;;16.99;100.00;100886.50;5307318;28;20583;-69
2022/06/25 03:38:05;;;;;;;3.25;2.80;;;;;;;16.99;100.00;100894.44;5305558;28;20123;-69
2022/06/25 03:40:37;;;;;;;5.57;3.67;;;;;;;17.00;100.00;100899.56;5308566;28;20056;-68
2022/06/25 03:43:08;;;;;;;4.43;3.40;;;;;;;17.02;100.00;100902.88;5306352;28;20080;-68
2022/06/25 03:45:39;;;;;;;8.35;3.38;;;;;;;17.02;100.00;100889.66;5311868;28;20046;-68
2022/06/25 03:48:11;;;;;;;6.85;3.53;;;;;;;17.08;100.00;100901.34;5315596;28;20027;-69
2022/06/25 03:50:42;;;;;;;6.78;3.15;;;;;;;17.12;100.00;100907.13;5311348;28;20433;-69
2022/06/25 03:53:13;;;;;;;3.25;2.95;;;;;;;17.14;100.00;100903.34;5313118;28;20048;-68
2022/06/25 03:55:44;;;;;;;5.50;3.35;;;;;;;17.16;100.00;100906.66;5311773;28;20034;-68
2022/06/25 03:58:16;;;;;;;3.70;3.28;;;;;;;17.16;100.00;100901.34;5309911;28;20069;-69
2022/06/25 04:00:47;;;;;;;4.68;3.75;;;;;;;17.20;100.00;100902.66;5308245;28;20023;-68
2022/06/25 04:03:19;;;;;;;4.53;3.10;;;;;;;17.22;100.00;100897.19;5308502;28;20114;-68
2022/06/25 04:05:50;;;;;;;3.50;3.20;;;;;;;17.21;100.00;100898.19;5310487;28;20027;-68
2022/06/25 04:08:21;;;;;;;3.70;3.05;;;;;;;17.24;100.00;100906.59;5290276;28;20108;-69
2022/06/25 04:10:52;;;;;;;4.93;3.22;;;;;;;17.27;100.00;100908.91;5311096;28;20492;-69
2022/06/25 04:13:24;;;;;;;3.70;3.10;;;;;;;17.28;100.00;100901.78;5307227;28;20110;-69
2022/06/25 04:15:55;;;;;;;4.82;2.72;;;;;;;17.34;100.00;100913.50;5312793;28;20043;-68
2022/06/25 04:18:26;;;;;;;3.40;3.08;;;;;;;17.37;100.00;100905.22;5306438;27;20503;-68
2022/06/25 04:20:59;;;;;;;4.90;2.58;;;;;;;17.40;100.00;100904.88;5308446;28;20027;-68
2022/06/25 04:23:30;;;;;;;5.50;2.83;;;;;;;17.39;100.00;100904.06;5290371;28;20032;-68
2022/06/25 04:26:02;;;;;;;3.80;3.03;;;;;;;17.43;100.00;100912.47;5304319;28;20033;-68
2022/06/25 04:31:23;;;;;;;7.07;3.35;;;;;;;17.50;100.00;100913.41;5307559;28;20023;-68
2022/06/25 04:33:55;;;;;;;4.70;2.75;;;;;;;17.56;100.00;100919.84;5306384;28;20032;-68
2022/06/25 04:36:27;;;;;;;6.53;2.70;;;;;;;17.61;100.00;100923.63;5312852;28;20469;-68
2022/06/25 04:38:58;;;;;;;5.97;3.10;;;;;;;17.66;100.00;100931.91;5308203;28;20054;-68
2022/06/25 04:41:29;;;;;;;5.05;2.72;;;;;;;17.72;100.00;100933.81;5303129;28;20494;-69
2022/06/25 04:44:01;;;;;;;3.73;2.63;;;;;;;17.78;100.00;100928.88;5310520;28;20039;-68
2022/06/25 04:46:32;;;;;;;3.50;3.00;;;;;;;17.83;100.00;100932.63;5303696;28;20528;-69
2022/06/25 04:49:04;;;;;;;5.13;2.60;;;;;;;17.92;100.00;100931.59;5308645;28;20106;-68
2022/06/25 04:51:35;;;;;;;4.23;2.37;;;;;;;17.99;100.00;100935.19;5311884;28;20076;-68
2022/06/25 04:54:06;;;;;;;5.70;2.87;;;;;;;18.08;100.00;100935.97;5312075;28;20097;-67
2022/06/25 04:56:37;;;;;;;3.75;2.90;;;;;;;18.11;100.00;100940.91;5311245;28;20016;-69
2022/06/25 04:59:09;;;;;;;8.27;3.10;;;;;;;18.16;100.00;100935.06;5312404;28;20712;-67
2022/06/25 05:01:40;;;;;;;5.65;2.90;;;;;;;18.17;100.00;100939.38;5287827;28;20030;-68
2022/06/25 05:04:12;;;;;;;6.03;3.17;;;;;;;18.17;100.00;100948.13;5306416;28;20054;-67
2022/06/25 05:06:44;;;;;;;4.43;2.70;;;;;;;18.18;100.00;100947.16;5291082;28;20111;-67
2022/06/25 05:09:15;;;;;;;5.78;2.85;;;;;;;18.23;100.00;100959.88;5305104;28;20035;-68
2022/06/25 05:11:46;;;;;;;4.82;2.72;;;;;;;18.22;100.00;100948.47;5306881;28;20030;-68
2022/06/25 05:14:18;;;;;;;7.78;3.20;;;;;;;18.19;100.00;100954.09;5304972;28;20396;-68
2022/06/25 05:16:49;;;;;;;5.22;2.88;;;;;;;18.23;100.00;100959.88;5310483;28;20028;-68
2022/06/25 05:19:21;;;;;;;4.97;2.80;;;;;;;18.20;100.00;100962.88;5309557;28;20030;-68
2022/06/25 05:21:52;;;;;;;5.45;2.67;;;;;;;18.24;100.00;100958.88;5302501;28;20053;-68
2022/06/25 05:24:23;;;;;;;7.03;3.40;;;;;;;18.26;100.00;100956.88;5301965;28;20034;-67
2022/06/25 05:26:55;;;;;;;5.53;3.03;;;;;;;18.32;100.00;100960.63;5307321;28;20040;-68
2022/06/25 05:29:26;;;;;;;6.20;2.93;;;;;;;18.39;100.00;100959.75;5307240;28;20038;-68
2022/06/25 05:31:57;;;;;;;4.65;2.88;;;;;;;18.49;100.00;100964.81;5304774;28;20374;-69
2022/06/25 05:34:28;;;;;;;5.57;3.03;;;;;;;18.59;100.00;100961.91;5305391;28;20031;-69
2022/06/25 05:37:00;;;;;;;4.47;2.87;;;;;;;18.63;100.00;100971.16;5309591;28;20024;-68
2022/06/25 05:39:31;;;;;;;4.10;2.80;;;;;;;18.67;100.00;100961.81;5307625;28;20055;-68
2022/06/25 05:42:03;;;;;;;5.03;2.67;;;;;;;18.71;100.00;100969.28;5286452;28;20023;-68
2022/06/25 05:44:34;;;;;;;8.75;3.10;;;;;;;18.73;100.00;100969.09;5313183;28;20032;-68
2022/06/25 05:47:06;;;;;;;5.32;3.20;;;;;;;18.73;100.00;100963.78;5310662;28;20028;-68
2022/06/25 05:49:38;;;;;;;6.10;2.93;;;;;;;18.82;100.00;100975.16;5303829;28;20024;-70
2022/06/25 05:52:09;;;;;;;5.30;3.17;;;;;;;18.85;100.00;100980.91;5307603;28;20075;-68
2022/06/25 05:54:40;;;;;;;5.67;2.80;;;;;;;18.85;100.00;100982.75;5290282;28;20108;-67
2022/06/25 05:57:11;;;;;;;6.53;3.00;;;;;;;18.82;100.00;100988.41;5305161;28;20044;-69
2022/06/25 05:59:43;;;;;;;6.53;3.23;;;;;;;18.92;100.00;100995.13;5307509;28;20076;-69
2022/06/25 06:02:14;;;;;;;6.37;3.53;;;;;;;19.03;100.00;100990.38;5295044;28;20153;-68
2022/06/25 06:04:45;;;;;;;7.00;3.00;;;;;;;19.13;100.00;100989.13;5285843;27;20027;-68
2022/06/25 06:07:17;;;;;;;10.23;3.42;;;;;;;19.16;100.00;101002.00;5307131;28;20073;-68
2022/06/25 06:09:48;;;;;;;6.82;2.90;;;;;;;19.27;100.00;100998.06;5309245;28;20019;-68
2022/06/25 06:12:19;;;;;;;4.83;2.80;;;;;;;19.30;100.00;101000.38;5305938;28;20296;-68
2022/06/25 06:14:51;;;;;;;6.10;3.17;;;;;;;19.34;100.00;101000.81;5291746;28;20022;-68
2022/06/25 06:17:22;;;;;;;5.47;3.07;;;;;;;19.38;100.00;101000.28;5304685;28;20459;-69
2022/06/25 06:19:53;;;;;;;7.40;3.30;;;;;;;19.47;100.00;101008.97;5301572;28;20580;-69
2022/06/25 06:22:25;;;;;;;7.90;3.17;;;;;;;19.47;100.00;101003.66;5302903;28;20032;-71
2022/06/25 06:24:56;;;;;;;4.93;2.80;;;;;;;19.53;100.00;101020.69;5292968;28;20477;-69
2022/06/25 06:27:27;;;;;;;7.93;3.33;;;;;;;19.64;100.00;101023.75;5300716;28;20110;-71
2022/06/25 06:29:59;;;;;;;5.20;2.80;;;;;;;19.62;100.00;101015.16;5307455;28;20491;-69
2022/06/25 06:32:30;;;;;;;7.30;3.17;;;;;;;19.73;100.00;101020.97;5289156;28;20088;-68
2022/06/25 06:35:01;;;;;;;5.93;3.23;;;;;;;19.66;100.00;101021.75;5294829;28;20032;-68
2022/06/25 06:37:33;;;;;;;7.07;3.17;;;;;;;19.68;100.00;101026.84;5303398;28;20087;-68
2022/06/25 06:40:06;;;;;;;6.73;2.90;;;;;;;19.69;100.00;101031.16;5282716;28;20532;-69
2022/06/25 06:42:37;;;;;;;;;;;;;;;20.18;100.00;101031.31;5302169;28;20028;-69
2022/06/25 06:45:09;;;;;;;6.45;2.65;;;;;;;19.84;100.00;101031.13;5303744;28;19927;-69
2022/06/25 06:47:41;;;;;;;6.57;3.08;;;;;;;19.88;100.00;101029.75;5304730;28;20024;-69
2022/06/25 06:50:12;;;;;;;7.33;3.30;;;;;;;19.97;100.00;101033.16;5283968;28;20019;-68
2022/06/25 06:52:44;;;;;;;5.03;2.90;;;;;;;20.18;100.00;101028.66;5299993;28;20036;-69
2022/06/25 06:55:15;;;;;;;4.80;2.93;;;;;;;20.30;100.00;101034.31;5305760;28;20024;-68
2022/06/25 06:57:46;;;;;;;4.67;2.90;;;;;;;20.51;100.00;101030.88;5308259;28;20027;-68
2022/06/25 07:00:17;;;;;;;6.80;2.50;;;;;;;20.49;100.00;101024.03;5310006;28;20102;-69
2022/06/25 07:02:49;;;;;;;5.17;2.40;;;;;;;20.60;100.00;101029.72;5305277;28;20032;-68
2022/06/25 07:05:20;;;;;;;4.20;2.73;;;;;;;20.72;100.00;101021.19;5308173;28;20028;-69
2022/06/25 07:07:51;;;;;;;5.40;2.93;;;;;;;20.86;100.00;101030.94;5304539;28;20058;-68
2022/06/25 07:10:23;;;;;;;6.20;2.60;;;;;;;20.92;100.00;101032.03;5305883;28;20051;-69
2022/06/25 07:12:54;;;;;;;7.17;2.70;;;;;;;20.98;100.00;101028.56;5305651;28;20043;-68
2022/06/25 07:15:25;;;;;;;5.33;2.33;;;;;;;21.16;100.00;101034.25;5308673;28;20023;-69
2022/06/25 07:17:57;;;;;;;4.50;2.47;;;;;;;21.16;100.00;101033.41;5304866;28;20366;-68
2022/06/25 07:20:28;;;;;;;4.80;2.50;;;;;;;21.16;100.00;101028.09;5292059;28;20024;-68
2022/06/25 07:23:00;;;;;;;6.13;2.73;;;;;;;21.32;100.00;101035.75;5297286;28;20043;-70
2022/06/25 07:25:31;;;;;;;5.30;2.63;;;;;;;21.39;100.00;101039.31;5302914;28;20368;-69
2022/06/25 07:28:02;;;;;;;5.77;2.13;;;;;;;21.57;100.00;101034.31;5305513;28;20031;-68
2022/06/25 07:30:33;;;;;;;4.43;2.13;;;;;;;21.55;100.00;101030.19;5304511;28;20473;-68
2022/06/25 07:33:05;;;;;;;4.23;2.23;;;;;;;21.58;100.00;101033.28;5301635;28;20036;-69
2022/06/25 07:35:36;;;;;;;4.93;2.17;;;;;;;21.77;100.00;101037.06;5306767;28;20083;-69
2022/06/25 07:38:07;;;;;;;7.47;2.23;;;;;;;21.97;100.00;101042.47;5305631;28;20114;-68
2022/06/25 07:40:39;;;;;;;5.47;2.30;;;;;;;21.94;100.00;101037.53;5302514;28;20031;-69
2022/06/25 07:43:10;;;;;;;5.07;2.17;;;;;;;21.84;100.00;101037.09;5283373;28;20071;-69
2022/06/25 07:45:42;;;;;;;5.20;2.00;;;;;;;21.81;100.00;101043.63;5286005;28;20028;-70
2022/06/25 07:48:13;;;;;;;6.07;1.80;;;;;;;21.78;100.00;101048.53;5304865;28;20042;-69
2022/06/25 07:53:35;;;;;;;6.43;1.55;;;;;;;21.61;100.00;101048.06;5307673;28;20458;-69
2022/06/25 07:56:06;;;;;;;3.43;1.60;;;;;;;21.62;100.00;101047.84;5292946;28;20028;-69
2022/06/25 07:58:38;;;;;;;4.50;1.43;;;;;;;21.69;100.00;101047.88;5293136;28;20028;-71
2022/06/25 08:01:11;;;;;;;4.80;1.60;;;;;;;21.84;100.00;101055.75;5308737;28;20066;-68
2022/06/25 08:03:42;;;;;;;6.35;1.92;;;;;;;21.87;100.00;101052.69;5304712;28;20567;-70
2022/06/25 08:06:13;;;;;;;5.07;1.50;;;;;;;21.89;100.00;101049.81;5303008;28;20119;-69
2022/06/25 08:08:45;;;;;;;3.00;1.33;;;;;;;21.96;100.00;101054.16;5310308;28;20080;-70
2022/06/25 08:11:16;;;;;;;2.90;1.30;;;;;;;22.00;100.00;101051.91;5309557;28;20020;-69
2022/06/25 08:13:48;;;;;;;3.83;1.73;;;;;;;21.82;100.00;101047.97;5285800;28;21201;-69
2022/06/25 08:16:21;;;;;;;3.07;1.43;;;;;;;21.77;100.00;101042.38;5284579;28;20538;-70
2022/06/25 08:18:53;;;;;;;4.38;1.50;;;;;;;21.58;100.00;101051.94;5299236;28;20028;-73
2022/06/25 08:21:25;;;;;;;4.45;1.60;;;;;;;21.51;100.00;101056.41;5302084;28;20503;-69
2022/06/25 08:23:56;;;;;;;2.13;1.23;;;;;;;21.54;100.00;101056.03;5289382;28;20028;-69
2022/06/25 08:26:27;;;;;;;3.83;1.50;;;;;;;21.54;100.00;101061.34;5307849;28;20484;-70
2022/06/25 08:28:59;;;;;;;4.63;1.47;;;;;;;21.48;100.00;101061.31;5306537;28;20496;-70
2022/06/25 08:31:30;;;;;;;2.77;1.20;;;;;;;21.47;100.00;101063.16;5284969;28;20665;-69
2022/06/25 08:34:02;;;;;;;6.43;1.90;;;;;;;21.55;100.00;101063.00;5304833;28;20031;-70
2022/06/25 08:36:33;;;;;;;4.00;1.60;;;;;;;21.82;100.00;101057.78;5308209;28;20374;-70
2022/06/25 08:39:04;;;;;;;3.17;1.77;;;;;;;21.97;100.00;101053.16;5307714;28;20027;-70
2022/06/25 08:41:36;;;;;;;5.37;1.70;;;;;;;22.08;100.00;101057.06;5307158;28;20462;-70
2022/06/25 08:44:08;;;;;;;3.70;1.37;;;;;;;22.24;100.00;101053.25;5301132;28;20054;-73
2022/06/25 08:46:40;;;;;;;6.32;1.67;;;;;;;22.44;100.00;101055.97;5282703;28;20020;-70
2022/06/25 08:49:13;;;;;;;3.67;1.60;;;;;;;22.37;100.00;101055.94;5312066;28;20024;-69
2022/06/25 08:51:45;;;;;;;4.53;1.58;;;;;;;22.56;100.00;101060.50;5308683;28;20628;-71
2022/06/25 08:54:17;;;;;;;;;;;;;;;23.15;100.00;101061.56;5292130;28;20139;-69
2022/06/25 08:56:48;;;;;;;4.13;1.55;;;;;;;22.79;100.00;101057.41;5276888;28;20042;-69
2022/06/25 08:59:19;;;;;;;4.60;1.60;;;;;;;22.72;100.00;101064.59;5284062;28;20025;-69
2022/06/25 09:01:50;;;;;;;3.60;1.80;;;;;;;22.76;100.00;101060.50;5286461;28;20496;-70
2022/06/25 09:04:22;;;;;;;3.77;1.50;;;;;;;22.74;100.00;101056.41;5283662;28;20035;-69
2022/06/25 09:07:13;;;;;;;2.90;1.20;;;;;;;22.99;100.00;101060.09;5287948;28;20398;-70
2022/06/25 09:09:46;;;;;;;5.00;1.60;;;;;;;22.67;100.00;101066.25;5281138;28;20039;-70
2022/06/25 09:12:22;;;;;;;4.55;1.42;;;;;;;22.61;100.00;101061.72;5287306;28;20025;-70
2022/06/25 09:14:53;;;;;;;3.58;1.50;;;;;;;22.62;100.00;101066.06;5287809;28;20051;-69
2022/06/25 09:17:24;;;;;;;3.80;1.60;;;;;;;22.73;100.00;101068.09;5286460;28;20033;-70
2022/06/25 09:19:57;;;;;;;3.07;1.30;;;;;;;22.70;100.00;101066.66;5284717;28;20028;-70
2022/06/25 09:22:31;;;;;;;3.25;1.30;;;;;;;22.70;100.00;101061.31;5285382;28;20047;-69
2022/06/25 09:25:02;;;;;;;4.18;1.80;;;;;;;22.67;100.00;101066.25;5290729;28;20027;-70
2022/06/25 09:27:38;;;;;;;5.07;1.40;;;;;;;22.89;100.00;101061.53;5286768;28;20036;-70
2022/06/25 09:30:10;;;;;;;4.28;1.83;;;;;;;23.10;100.00;101063.19;5282282;28;20322;-69
2022/06/25 09:32:55;;;;;;;;;;;;;;;23.63;100.00;101066.56;5284317;28;20501;-69
2022/06/25 09:35:42;;;;;;;3.50;1.70;;;;;;;23.20;100.00;101058.25;5283698;28;19999;-71
2022/06/25 09:38:16;;;;;;;4.60;1.58;;;;;;;23.21;100.00;101059.88;5287411;28;20031;-70
2022/06/25 09:40:54;;;;;;;3.03;1.42;;;;;;;23.25;100.00;101059.25;5285090;28;20037;-70
2022/06/25 09:43:35;;;;;;;5.57;1.52;;;;;;;23.23;100.00;101066.69;5290284;28;20031;-70
2022/06/25 09:46:07;;;;;;;2.95;1.30;;;;;;;23.24;100.00;101065.63;5279680;28;20032;-70
2022/06/25 09:48:41;;;;;;;3.97;1.33;;;;;;;23.18;100.00;101065.66;5285654;28;20509;-70
2022/06/25 09:51:15;;;;;;;3.20;1.20;;;;;;;23.25;100.00;101061.94;5288910;28;20100;-70
2022/06/25 09:54:00;;;;;;;3.10;1.20;;;;;;;23.38;100.00;101068.31;5299084;28;20101;-69
2022/06/25 09:56:34;;;;;;;4.93;1.58;;;;;;;23.38;100.00;101068.31;5307191;28;20034;-70
2022/06/25 09:59:06;;;;;;;4.15;1.23;;;;;;;23.40;100.00;101075.06;5303928;28;20067;-70
2022/06/25 10:01:37;;;;;;;3.20;1.10;;;;;;;23.60;100.00;101071.50;5312243;28;20108;-70
2022/06/25 10:04:10;;;;;;;3.83;1.20;;;;;;;23.62;100.00;101069.47;5305528;28;20103;-70
2022/06/25 10:06:42;;;;;;;3.92;1.50;;;;;;;23.60;100.00;101079.53;5310078;28;20024;-71
2022/06/25 10:09:15;;;;;;;7.07;1.50;;;;;;;23.76;100.00;101071.91;5297263;28;20063;-70
2022/06/25 10:11:47;;;;;;;5.15;1.60;;;;;;;23.90;100.00;101071.84;5304043;28;20476;-71
2022/06/25 10:14:19;;;;;;;3.47;1.30;;;;;;;23.97;100.00;101065.44;5305440;28;20500;-69
2022/06/25 10:16:50;;;;;;;2.97;1.20;;;;;;;24.06;100.00;101067.88;5309149;28;20359;-70
2022/06/25 10:19:24;;;;;;;2.00;0.93;;;;;;;24.20;100.00;101064.91;5288908;28;20016;-71
2022/06/25 10:21:56;;;;;;;3.33;1.20;;;;;;;24.40;100.00;101062.16;5307857;28;20027;-70
2022/06/25 10:24:28;;;;;;;12.07;1.77;;;;;;;24.68;100.00;101064.41;5307494;28;20035;-70
2022/06/25 10:27:00;;;;;;;3.17;1.00;;;;;;;24.82;100.00;101054.41;5305703;28;20059;-71
2022/06/25 10:29:31;;;;;;;3.87;1.00;;;;;;;24.98;100.00;101055.72;5308671;28;20062;-70
2022/06/25 10:32:21;;;;;;;2.33;0.97;;;;;;;25.07;100.00;101054.38;5288010;28;20272;-70
2022/06/25 10:34:56;;;;;;;3.40;1.10;;;;;;;24.70;100.00;101048.09;5304908;28;20494;-70
2022/06/25 10:38:00;;;;;;;1.67;0.77;;;;;;;25.04;100.00;101046.81;5302881;28;20036;-70
2022/06/25 10:40:32;;;;;;;;;;;;;;;25.55;100.00;101048.34;5287245;28;20039;-70
2022/06/25 10:43:36;;;;;;;1.55;0.70;;;;;;;25.59;100.00;101051.41;5306147;28;19923;-70
2022/06/25 10:46:26;;;;;;;2.63;0.88;;;;;;;25.50;100.00;101063.50;5307593;28;20028;-71
2022/06/25 10:49:05;;;;;;;2.33;0.80;;;;;;;25.42;100.00;101064.56;5309859;28;20039;-70
2022/06/25 10:51:47;;;;;;;3.03;0.80;;;;;;;25.43;100.00;101058.19;5308271;28;20061;-70
2022/06/25 10:54:22;;;;;;;1.63;0.80;;;;;;;25.42;100.00;101062.75;5304768;28;20040;-70
2022/06/25 10:56:55;;;;;;;2.20;1.00;;;;;;;25.30;100.00;101053.78;5308330;28;20119;-70
2022/06/25 10:59:34;;;;;;;3.83;1.17;;;;;;;25.63;100.00;101057.97;5304239;28;20374;-70
2022/06/25 11:02:07;;;;;;;1.30;0.60;;;;;;;25.84;100.00;101059.41;5309988;28;20123;-69
2022/06/25 11:04:48;;;;;;;2.30;0.90;;;;;;;25.98;100.00;101049.28;5307040;28;20380;-71
2022/06/25 11:07:22;;;;;;;2.08;0.70;;;;;;;26.00;100.00;101039.16;5308564;28;20028;-69
2022/06/25 11:10:03;;;;;;;1.83;0.80;;;;;;;26.09;100.00;101053.88;5279862;28;20024;-70
2022/06/25 11:12:34;;;;;;;2.95;1.15;;;;;;;25.77;100.00;101054.09;5305773;28;20591;-69
2022/06/25 11:15:08;;;;;;;1.70;0.68;;;;;;;25.91;100.00;101047.53;5307218;28;20421;-69
2022/06/25 11:17:39;;;;;;;1.67;0.60;;;;;;;25.61;100.00;101044.78;5306811;28;20066;-72
2022/06/25 11:20:12;;;;;;;2.00;0.83;;;;;;;25.75;100.00;101047.28;5301236;28;20063;-69
2022/06/25 11:22:49;;;;;;;5.45;0.93;;;;;;;25.66;100.00;101054.84;5309120;28;20538;-70
2022/06/25 11:31:01;;;;;;;3.83;0.80;;;;;;;25.47;100.00;101056.72;5304593;28;20020;-69
2022/06/25 11:33:34;;;;;;;2.67;0.85;;;;;;;25.45;100.00;101062.28;5309114;28;20023;-70
2022/06/25 11:36:10;;;;;;;2.95;0.70;;;;;;;25.60;100.00;101067.28;5307954;28;20039;-70
2022/06/25 11:38:44;;;;;;;1.42;0.82;;;;;;;25.72;100.00;101056.59;5306758;28;20054;-69
2022/06/25 11:41:23;;;;;;;2.20;0.80;;;;;;;25.69;100.00;101060.56;5292583;28;20024;-72
2022/06/25 11:43:55;;;;;;;1.85;0.73;;;;;;;25.56;100.00;101063.41;5305260;28;20939;-70
2022/06/25 11:46:26;;;;;;;2.28;0.65;;;;;;;25.57;100.00;101061.53;5309909;28;20020;-69
2022/06/25 11:48:58;;;;;;;2.67;1.00;;;;;;;25.47;100.00;101056.72;5290552;28;20030;-70
2022/06/25 11:51:30;;;;;;;1.73;0.70;;;;;;;25.48;100.00;101055.66;5306374;28;20069;-69
2022/06/25 11:54:05;;;;;;;1.60;0.70;;;;;;;25.37;100.00;101054.53;5309349;28;20044;-69